sensor_id;sensor_type;location;lat;lon;timestamp;pressure;altitude;pressure_sealevel;temperature;humidity
19884;BME280;10104;50.732;10.174;2023-05-20T00:01:21;98374.94;;;15.58;64.72
19884;BME280;10104;50.732;10.174;2023-05-20T00:03:42;98373.09;;;15.65;64.25
19884;BME280;10104;50.732;10.174;2023-05-20T00:06:04;98379.44;;;15.70;63.93
19884;BME280;10104;50.732;10.174;2023-05-20T00:08:25;98376.38;;;15.60;64.87
19884;BME280;10104;50.732;10.174;2023-05-20T00:10:47;98372.66;;;15.68;64.20
19884;BME280;10104;50.732;10.174;2023-05-20T00:13:08;98377.75;;;15.83;63.64
19884;BME280;10104;50.732;10.174;2023-05-20T00:15:30;98373.03;;;15.85;63.50
19884;BME280;10104;50.732;10.174;2023-05-20T00:17:53;98371.41;;;15.77;63.92
19884;BME280;10104;50.732;10.174;2023-05-20T00:20:15;98362.41;;;15.65;64.95
19884;BME280;10104;50.732;10.174;2023-05-20T00:22:36;98365.25;;;15.50;66.33
19884;BME280;10104;50.732;10.174;2023-05-20T00:24:58;98366.53;;;15.61;66.21
19884;BME280;10104;50.732;10.174;2023-05-20T00:27:20;98366.94;;;15.64;65.72
19884;BME280;10104;50.732;10.174;2023-05-20T00:29:41;98363.84;;;15.67;65.31
19884;BME280;10104;50.732;10.174;2023-05-20T00:32:03;98362.78;;;15.75;64.97
19884;BME280;10104;50.732;10.174;2023-05-20T00:34:24;98361.56;;;15.77;65.36
19884;BME280;10104;50.732;10.174;2023-05-20T00:36:46;98353.09;;;15.81;65.07
19884;BME280;10104;50.732;10.174;2023-05-20T00:39:07;98359.53;;;15.73;65.42
19884;BME280;10104;50.732;10.174;2023-05-20T00:41:29;98356.84;;;15.80;65.25
19884;BME280;10104;50.732;10.174;2023-05-20T00:43:54;98357.22;;;15.83;64.75
19884;BME280;10104;50.732;10.174;2023-05-20T00:46:16;98351.88;;;15.90;64.59
19884;BME280;10104;50.732;10.174;2023-05-20T00:48:40;98345.69;;;15.96;64.19
19884;BME280;10104;50.732;10.174;2023-05-20T00:51:02;98346.94;;;15.80;65.62
19884;BME280;10104;50.732;10.174;2023-05-20T00:53:25;98351.25;;;15.81;65.09
19884;BME280;10104;50.732;10.174;2023-05-20T00:55:47;98343.69;;;15.71;65.42
19884;BME280;10104;50.732;10.174;2023-05-20T00:58:09;98339.38;;;15.70;65.92
19884;BME280;10104;50.732;10.174;2023-05-20T01:00:31;98343.09;;;15.56;67.68
19884;BME280;10104;50.732;10.174;2023-05-20T01:02:54;98342.06;;;15.70;66.07
19884;BME280;10104;50.732;10.174;2023-05-20T01:05:15;98334.69;;;15.66;66.10
19884;BME280;10104;50.732;10.174;2023-05-20T01:07:37;98341.44;;;15.62;67.35
19884;BME280;10104;50.732;10.174;2023-05-20T01:09:59;98334.25;;;15.62;66.80
19884;BME280;10104;50.732;10.174;2023-05-20T01:12:38;98338.19;;;15.66;65.93
19884;BME280;10104;50.732;10.174;2023-05-20T01:15:04;98339.59;;;15.62;67.36
19884;BME280;10104;50.732;10.174;2023-05-20T01:17:30;98337.75;;;15.63;66.83
19884;BME280;10104;50.732;10.174;2023-05-20T01:19:54;98326.06;;;15.64;67.12
19884;BME280;10104;50.732;10.174;2023-05-20T01:22:16;98329.94;;;15.68;66.59
19884;BME280;10104;50.732;10.174;2023-05-20T01:24:47;98324.22;;;15.64;66.88
19884;BME280;10104;50.732;10.174;2023-05-20T01:27:09;98330.38;;;15.65;66.60
19884;BME280;10104;50.732;10.174;2023-05-20T01:29:31;98331.75;;;15.74;65.75
19884;BME280;10104;50.732;10.174;2023-05-20T01:31:53;98327.25;;;15.74;65.61
19884;BME280;10104;50.732;10.174;2023-05-20T01:34:17;98329.72;;;15.69;67.46
19884;BME280;10104;50.732;10.174;2023-05-20T01:36:39;98332.84;;;15.66;66.08
19884;BME280;10104;50.732;10.174;2023-05-20T01:39:01;98319.47;;;15.66;66.26
19884;BME280;10104;50.732;10.174;2023-05-20T01:41:25;98323.19;;;15.65;66.71
19884;BME280;10104;50.732;10.174;2023-05-20T01:43:47;98324.00;;;15.66;66.21
19884;BME280;10104;50.732;10.174;2023-05-20T01:46:09;98328.88;;;15.82;65.54
19884;BME280;10104;50.732;10.174;2023-05-20T01:48:30;98322.53;;;15.76;66.11
19884;BME280;10104;50.732;10.174;2023-05-20T01:50:52;98321.91;;;15.74;66.06
19884;BME280;10104;50.732;10.174;2023-05-20T01:53:13;98315.16;;;15.72;65.86
19884;BME280;10104;50.732;10.174;2023-05-20T01:55:35;98314.53;;;15.70;67.26
19884;BME280;10104;50.732;10.174;2023-05-20T01:57:57;98311.69;;;15.65;68.05
19884;BME280;10104;50.732;10.174;2023-05-20T02:00:18;98310.84;;;15.64;67.41
19884;BME280;10104;50.732;10.174;2023-05-20T02:02:40;98317.41;;;15.68;66.85
19884;BME280;10104;50.732;10.174;2023-05-20T02:05:02;98308.81;;;15.66;67.04
19884;BME280;10104;50.732;10.174;2023-05-20T02:07:23;98316.00;;;15.66;67.48
19884;BME280;10104;50.732;10.174;2023-05-20T02:09:46;98308.81;;;15.66;67.32
19884;BME280;10104;50.732;10.174;2023-05-20T02:12:08;98309.41;;;15.68;67.10
19884;BME280;10104;50.732;10.174;2023-05-20T02:14:30;98311.66;;;15.71;66.72
19884;BME280;10104;50.732;10.174;2023-05-20T02:16:51;98312.06;;;15.68;66.82
19884;BME280;10104;50.732;10.174;2023-05-20T02:19:13;98312.50;;;15.65;67.57
19884;BME280;10104;50.732;10.174;2023-05-20T02:21:41;98320.31;;;15.67;67.38
19884;BME280;10104;50.732;10.174;2023-05-20T02:24:04;98309.81;;;15.72;67.49
19884;BME280;10104;50.732;10.174;2023-05-20T02:26:25;98312.69;;;15.70;67.52
19884;BME280;10104;50.732;10.174;2023-05-20T02:28:47;98312.69;;;15.70;67.36
19884;BME280;10104;50.732;10.174;2023-05-20T02:31:11;98315.34;;;15.70;67.30
19884;BME280;10104;50.732;10.174;2023-05-20T02:33:33;98310.22;;;15.69;67.39
19884;BME280;10104;50.732;10.174;2023-05-20T02:35:55;98311.25;;;15.68;68.58
19884;BME280;10104;50.732;10.174;2023-05-20T02:38:16;98311.69;;;15.65;68.75
19884;BME280;10104;50.732;10.174;2023-05-20T02:40:38;98307.19;;;15.59;69.12
19884;BME280;10104;50.732;10.174;2023-05-20T02:43:00;98314.56;;;15.57;68.94
19884;BME280;10104;50.732;10.174;2023-05-20T02:45:24;98309.84;;;15.59;68.60
19884;BME280;10104;50.732;10.174;2023-05-20T02:47:45;98307.38;;;15.57;69.00
19884;BME280;10104;50.732;10.174;2023-05-20T02:50:07;98306.56;;;15.37;70.02
19884;BME280;10104;50.732;10.174;2023-05-20T02:52:29;98300.19;;;15.38;69.16
19884;BME280;10104;50.732;10.174;2023-05-20T02:54:50;98308.63;;;15.42;69.07
19884;BME280;10104;50.732;10.174;2023-05-20T02:57:13;98306.38;;;15.38;69.29
19884;BME280;10104;50.732;10.174;2023-05-20T02:59:34;98310.47;;;15.41;69.46
19884;BME280;10104;50.732;10.174;2023-05-20T03:01:56;98304.56;;;15.13;72.23
19884;BME280;10104;50.732;10.174;2023-05-20T03:04:17;98303.50;;;15.27;70.47
19884;BME280;10104;50.732;10.174;2023-05-20T03:06:39;98304.13;;;15.35;70.03
19884;BME280;10104;50.732;10.174;2023-05-20T03:09:04;98302.88;;;15.31;71.19
19884;BME280;10104;50.732;10.174;2023-05-20T03:11:26;98308.84;;;15.33;69.71
19884;BME280;10104;50.732;10.174;2023-05-20T03:13:47;98304.34;;;15.27;71.01
19884;BME280;10104;50.732;10.174;2023-05-20T03:16:09;98305.78;;;15.36;69.75
19884;BME280;10104;50.732;10.174;2023-05-20T03:18:33;98309.47;;;15.29;71.24
19884;BME280;10104;50.732;10.174;2023-05-20T03:20:55;98314.19;;;15.27;70.91
19884;BME280;10104;50.732;10.174;2023-05-20T03:23:16;98308.88;;;15.14;72.35
19884;BME280;10104;50.732;10.174;2023-05-20T03:25:39;98312.78;;;15.11;72.24
19884;BME280;10104;50.732;10.174;2023-05-20T03:28:00;98321.16;;;14.75;76.27
19884;BME280;10104;50.732;10.174;2023-05-20T03:30:22;98314.41;;;14.73;75.41
19884;BME280;10104;50.732;10.174;2023-05-20T03:32:44;98313.41;;;14.74;75.91
19884;BME280;10104;50.732;10.174;2023-05-20T03:35:06;98310.50;;;14.55;77.31
19884;BME280;10104;50.732;10.174;2023-05-20T03:37:28;98316.19;;;14.39;79.03
19884;BME280;10104;50.732;10.174;2023-05-20T03:39:50;98317.78;;;14.34;79.26
19884;BME280;10104;50.732;10.174;2023-05-20T03:42:11;98308.84;;;14.48;78.00
19884;BME280;10104;50.732;10.174;2023-05-20T03:44:33;98311.75;;;14.79;75.51
19884;BME280;10104;50.732;10.174;2023-05-20T03:46:54;98307.25;;;14.93;74.13
19884;BME280;10104;50.732;10.174;2023-05-20T03:49:16;98302.75;;;14.87;75.22
19884;BME280;10104;50.732;10.174;2023-05-20T03:51:37;98300.28;;;14.79;75.38
19884;BME280;10104;50.732;10.174;2023-05-20T03:53:59;98291.25;;;14.86;75.37
19884;BME280;10104;50.732;10.174;2023-05-20T03:56:21;98301.28;;;14.91;75.74
19884;BME280;10104;50.732;10.174;2023-05-20T03:58:43;98299.84;;;15.08;74.15
19884;BME280;10104;50.732;10.174;2023-05-20T04:01:04;98298.44;;;15.06;76.18
19884;BME280;10104;50.732;10.174;2023-05-20T04:03:26;98308.22;;;15.18;74.59
19884;BME280;10104;50.732;10.174;2023-05-20T04:05:49;98307.44;;;15.18;74.58
19884;BME280;10104;50.732;10.174;2023-05-20T04:08:11;98306.00;;;15.15;75.16
19884;BME280;10104;50.732;10.174;2023-05-20T04:10:34;98302.50;;;15.02;75.83
19884;BME280;10104;50.732;10.174;2023-05-20T04:12:55;98303.53;;;15.07;75.30
19884;BME280;10104;50.732;10.174;2023-05-20T04:15:17;98303.97;;;14.97;76.04
19884;BME280;10104;50.732;10.174;2023-05-20T04:17:40;98306.00;;;15.15;74.62
19884;BME280;10104;50.732;10.174;2023-05-20T04:20:02;98300.66;;;14.95;76.47
19884;BME280;10104;50.732;10.174;2023-05-20T04:22:26;98304.34;;;14.94;76.34
19884;BME280;10104;50.732;10.174;2023-05-20T04:24:47;98312.97;;;15.10;75.29
19884;BME280;10104;50.732;10.174;2023-05-20T04:27:09;98313.38;;;15.13;75.02
19884;BME280;10104;50.732;10.174;2023-05-20T04:29:31;98317.88;;;15.26;74.57
19884;BME280;10104;50.732;10.174;2023-05-20T04:31:54;98315.84;;;15.08;76.07
19884;BME280;10104;50.732;10.174;2023-05-20T04:34:19;98319.53;;;14.94;76.56
19884;BME280;10104;50.732;10.174;2023-05-20T04:36:47;98319.13;;;14.84;77.76
19884;BME280;10104;50.732;10.174;2023-05-20T04:39:09;98316.06;;;14.93;76.85
19884;BME280;10104;50.732;10.174;2023-05-20T04:41:30;98323.25;;;14.86;77.39
19884;BME280;10104;50.732;10.174;2023-05-20T04:43:52;98314.63;;;14.78;78.48
19884;BME280;10104;50.732;10.174;2023-05-20T04:46:14;98317.28;;;14.78;78.43
19884;BME280;10104;50.732;10.174;2023-05-20T04:48:36;98319.34;;;14.63;79.51
19884;BME280;10104;50.732;10.174;2023-05-20T04:50:58;98312.34;;;14.62;79.53
19884;BME280;10104;50.732;10.174;2023-05-20T04:53:20;98324.44;;;14.64;79.38
19884;BME280;10104;50.732;10.174;2023-05-20T04:55:44;98323.84;;;14.69;78.91
19884;BME280;10104;50.732;10.174;2023-05-20T04:58:06;98324.06;;;14.87;77.98
19884;BME280;10104;50.732;10.174;2023-05-20T05:00:28;98323.44;;;14.91;77.56
19884;BME280;10104;50.732;10.174;2023-05-20T05:02:50;98324.03;;;15.07;76.35
19884;BME280;10104;50.732;10.174;2023-05-20T05:05:12;98319.53;;;15.14;76.28
19884;BME280;10104;50.732;10.174;2023-05-20T05:07:33;98320.16;;;15.22;75.91
19884;BME280;10104;50.732;10.174;2023-05-20T05:09:55;98320.34;;;15.27;76.09
19884;BME280;10104;50.732;10.174;2023-05-20T05:12:16;98317.03;;;15.38;74.71
19884;BME280;10104;50.732;10.174;2023-05-20T05:14:38;98323.81;;;15.41;74.66
19884;BME280;10104;50.732;10.174;2023-05-20T05:17:01;98312.53;;;15.39;75.23
19884;BME280;10104;50.732;10.174;2023-05-20T05:19:22;98315.00;;;15.27;76.23
19884;BME280;10104;50.732;10.174;2023-05-20T05:21:44;98319.91;;;15.37;75.10
19884;BME280;10104;50.732;10.174;2023-05-20T05:24:07;98305.50;;;15.51;74.67
19884;BME280;10104;50.732;10.174;2023-05-20T05:26:29;98314.78;;;15.42;75.43
19884;BME280;10104;50.732;10.174;2023-05-20T05:28:53;98313.13;;;15.48;74.63
19884;BME280;10104;50.732;10.174;2023-05-20T05:31:15;98315.38;;;15.57;74.26
19884;BME280;10104;50.732;10.174;2023-05-20T05:33:36;98322.34;;;15.52;74.69
19884;BME280;10104;50.732;10.174;2023-05-20T05:35:58;98320.72;;;15.64;73.34
19884;BME280;10104;50.732;10.174;2023-05-20T05:38:21;98323.72;;;15.81;72.22
19884;BME280;10104;50.732;10.174;2023-05-20T05:40:42;98316.56;;;15.74;73.93
19884;BME280;10104;50.732;10.174;2023-05-20T05:43:04;98317.16;;;15.83;72.98
19884;BME280;10104;50.732;10.174;2023-05-20T05:45:25;98324.56;;;15.74;73.87
19884;BME280;10104;50.732;10.174;2023-05-20T05:47:47;98318.81;;;15.77;73.57
19884;BME280;10104;50.732;10.174;2023-05-20T05:50:09;98319.47;;;15.73;74.37
19884;BME280;10104;50.732;10.174;2023-05-20T05:52:30;98317.03;;;15.65;75.72
19884;BME280;10104;50.732;10.174;2023-05-20T05:54:53;98312.09;;;15.62;75.42
19884;BME280;10104;50.732;10.174;2023-05-20T05:57:14;98315.50;;;15.89;74.54
19884;BME280;10104;50.732;10.174;2023-05-20T05:59:36;98308.13;;;15.84;74.68
19884;BME280;10104;50.732;10.174;2023-05-20T06:01:57;98315.09;;;15.92;73.83
19884;BME280;10104;50.732;10.174;2023-05-20T06:04:19;98321.63;;;16.02;73.02
19884;BME280;10104;50.732;10.174;2023-05-20T06:06:40;98318.28;;;16.13;72.23
19884;BME280;10104;50.732;10.174;2023-05-20T06:09:02;98314.16;;;16.11;72.63
19884;BME280;10104;50.732;10.174;2023-05-20T06:11:24;98311.41;;;16.24;72.68
19884;BME280;10104;50.732;10.174;2023-05-20T06:13:46;98308.88;;;16.36;71.11
19884;BME280;10104;50.732;10.174;2023-05-20T06:16:08;98303.78;;;16.34;72.00
19884;BME280;10104;50.732;10.174;2023-05-20T06:18:29;98312.22;;;16.31;72.03
19884;BME280;10104;50.732;10.174;2023-05-20T06:20:55;98310.56;;;16.30;71.63
19884;BME280;10104;50.732;10.174;2023-05-20T06:23:17;98309.84;;;16.16;72.51
19884;BME280;10104;50.732;10.174;2023-05-20T06:25:38;98310.00;;;16.22;72.24
19884;BME280;10104;50.732;10.174;2023-05-20T06:28:00;98297.16;;;16.37;70.78
19884;BME280;10104;50.732;10.174;2023-05-20T06:30:21;98301.97;;;16.28;71.50
19884;BME280;10104;50.732;10.174;2023-05-20T06:32:43;98298.28;;;16.61;70.25
19884;BME280;10104;50.732;10.174;2023-05-20T06:35:05;98297.84;;;16.64;69.83
19884;BME280;10104;50.732;10.174;2023-05-20T06:37:26;98301.41;;;16.51;70.36
19884;BME280;10104;50.732;10.174;2023-05-20T06:39:48;98296.34;;;16.36;71.95
19884;BME280;10104;50.732;10.174;2023-05-20T06:42:13;98295.59;;;16.29;71.95
19884;BME280;10104;50.732;10.174;2023-05-20T06:44:35;98292.28;;;16.34;71.78
19884;BME280;10104;50.732;10.174;2023-05-20T06:46:56;98297.56;;;16.40;71.72
19884;BME280;10104;50.732;10.174;2023-05-20T06:49:18;98286.72;;;16.35;72.80
19884;BME280;10104;50.732;10.174;2023-05-20T06:51:39;98280.84;;;16.51;70.68
19884;BME280;10104;50.732;10.174;2023-05-20T06:54:01;98283.38;;;16.40;71.87
19884;BME280;10104;50.732;10.174;2023-05-20T06:56:22;98290.09;;;16.49;70.57
19884;BME280;10104;50.732;10.174;2023-05-20T06:58:44;98283.69;;;16.56;70.16
19884;BME280;10104;50.732;10.174;2023-05-20T07:01:05;98287.53;;;16.67;68.95
19884;BME280;10104;50.732;10.174;2023-05-20T07:03:27;98278.94;;;16.65;69.57
19884;BME280;10104;50.732;10.174;2023-05-20T07:05:50;98287.16;;;16.64;69.72
19884;BME280;10104;50.732;10.174;2023-05-20T07:08:11;98266.75;;;16.69;69.21
19884;BME280;10104;50.732;10.174;2023-05-20T07:10:33;98272.31;;;16.92;68.54
19884;BME280;10104;50.732;10.174;2023-05-20T07:12:55;98274.28;;;17.04;68.23
19884;BME280;10104;50.732;10.174;2023-05-20T07:15:16;98273.06;;;16.99;67.71
19884;BME280;10104;50.732;10.174;2023-05-20T07:17:38;98267.81;;;17.11;67.29
19884;BME280;10104;50.732;10.174;2023-05-20T07:19:59;98265.63;;;17.26;66.43
19884;BME280;10104;50.732;10.174;2023-05-20T07:22:21;98256.56;;;17.46;66.46
19884;BME280;10104;50.732;10.174;2023-05-20T07:24:43;98270.81;;;17.64;65.43
19884;BME280;10104;50.732;10.174;2023-05-20T07:27:04;98266.78;;;17.73;64.12
19884;BME280;10104;50.732;10.174;2023-05-20T07:29:26;98267.75;;;17.61;64.44
19884;BME280;10104;50.732;10.174;2023-05-20T07:31:48;98263.03;;;17.56;63.89
19884;BME280;10104;50.732;10.174;2023-05-20T07:34:09;98264.59;;;17.46;64.65
19884;BME280;10104;50.732;10.174;2023-05-20T07:36:31;98266.81;;;17.49;64.95
19884;BME280;10104;50.732;10.174;2023-05-20T07:38:53;98259.69;;;17.43;65.89
19884;BME280;10104;50.732;10.174;2023-05-20T07:41:25;98275.00;;;17.35;66.92
19884;BME280;10104;50.732;10.174;2023-05-20T07:43:46;98270.94;;;17.51;65.75
19884;BME280;10104;50.732;10.174;2023-05-20T07:46:08;98266.59;;;17.50;66.02
19884;BME280;10104;50.732;10.174;2023-05-20T07:48:29;98260.72;;;17.42;65.14
19884;BME280;10104;50.732;10.174;2023-05-20T07:50:51;98262.97;;;17.45;65.41
19884;BME280;10104;50.732;10.174;2023-05-20T07:53:12;98267.13;;;17.59;65.25
19884;BME280;10104;50.732;10.174;2023-05-20T07:55:34;98258.81;;;17.67;65.47
19884;BME280;10104;50.732;10.174;2023-05-20T07:57:58;98261.94;;;17.82;64.55
19884;BME280;10104;50.732;10.174;2023-05-20T08:00:20;98253.91;;;17.82;65.43
19884;BME280;10104;50.732;10.174;2023-05-20T08:02:41;98259.66;;;18.27;64.06
19884;BME280;10104;50.732;10.174;2023-05-20T08:05:04;98256.75;;;18.58;61.93
19884;BME280;10104;50.732;10.174;2023-05-20T08:07:25;98252.41;;;19.11;60.84
19884;BME280;10104;50.732;10.174;2023-05-20T08:09:47;98245.59;;;19.66;58.41
19884;BME280;10104;50.732;10.174;2023-05-20T08:12:08;98248.28;;;19.66;57.85
19884;BME280;10104;50.732;10.174;2023-05-20T08:14:30;98249.94;;;19.96;57.13
19884;BME280;10104;50.732;10.174;2023-05-20T08:16:51;98258.91;;;20.01;55.26
19884;BME280;10104;50.732;10.174;2023-05-20T08:19:15;98254.09;;;19.63;56.32
19884;BME280;10104;50.732;10.174;2023-05-20T08:21:37;98258.66;;;19.39;57.37
19884;BME280;10104;50.732;10.174;2023-05-20T08:23:58;98259.84;;;19.09;58.02
19884;BME280;10104;50.732;10.174;2023-05-20T08:26:20;98252.28;;;18.94;58.44
19884;BME280;10104;50.732;10.174;2023-05-20T08:28:42;98261.94;;;18.42;61.28
19884;BME280;10104;50.732;10.174;2023-05-20T08:31:04;98261.88;;;18.18;62.62
19884;BME280;10104;50.732;10.174;2023-05-20T08:33:25;98262.13;;;17.99;62.49
19884;BME280;10104;50.732;10.174;2023-05-20T08:35:47;98258.75;;;18.03;63.63
19884;BME280;10104;50.732;10.174;2023-05-20T08:38:09;98264.38;;;18.02;63.69
19884;BME280;10104;50.732;10.174;2023-05-20T08:40:30;98264.13;;;18.03;64.61
19884;BME280;10104;50.732;10.174;2023-05-20T08:42:54;98270.16;;;17.99;63.53
19884;BME280;10104;50.732;10.174;2023-05-20T08:45:19;98268.13;;;18.12;63.39
19884;BME280;10104;50.732;10.174;2023-05-20T08:47:48;98264.53;;;17.89;64.38
19884;BME280;10104;50.732;10.174;2023-05-20T08:50:11;98272.59;;;17.70;64.25
19884;BME280;10104;50.732;10.174;2023-05-20T08:52:33;98265.00;;;17.67;65.10
19884;BME280;10104;50.732;10.174;2023-05-20T08:54:55;98270.47;;;17.54;66.08
19884;BME280;10104;50.732;10.174;2023-05-20T08:57:17;98264.06;;;17.37;67.59
19884;BME280;10104;50.732;10.174;2023-05-20T08:59:41;98256.63;;;17.21;68.85
19884;BME280;10104;50.732;10.174;2023-05-20T09:02:04;98255.88;;;17.32;67.56
19884;BME280;10104;50.732;10.174;2023-05-20T09:04:26;98256.25;;;17.35;67.72
19884;BME280;10104;50.732;10.174;2023-05-20T09:06:49;98242.78;;;17.42;66.88
19884;BME280;10104;50.732;10.174;2023-05-20T09:09:12;98245.16;;;17.14;68.30
19884;BME280;10104;50.732;10.174;2023-05-20T09:11:34;98254.38;;;17.18;68.08
19884;BME280;10104;50.732;10.174;2023-05-20T09:13:56;98245.41;;;17.30;68.32
19884;BME280;10104;50.732;10.174;2023-05-20T09:16:17;98258.47;;;17.20;68.45
19884;BME280;10104;50.732;10.174;2023-05-20T09:18:39;98263.13;;;17.07;68.78
19884;BME280;10104;50.732;10.174;2023-05-20T09:21:04;98257.59;;;17.45;67.42
19884;BME280;10104;50.732;10.174;2023-05-20T09:23:27;98258.69;;;17.19;68.31
19884;BME280;10104;50.732;10.174;2023-05-20T09:25:51;98262.63;;;17.16;68.79
19884;BME280;10104;50.732;10.174;2023-05-20T09:28:13;98262.88;;;17.15;68.68
19884;BME280;10104;50.732;10.174;2023-05-20T09:30:34;98261.22;;;17.14;69.26
19884;BME280;10104;50.732;10.174;2023-05-20T09:32:58;98261.22;;;17.14;69.30
19884;BME280;10104;50.732;10.174;2023-05-20T09:35:21;98258.84;;;17.24;69.35
19884;BME280;10104;50.732;10.174;2023-05-20T09:37:45;98253.81;;;17.34;69.13
19884;BME280;10104;50.732;10.174;2023-05-20T09:40:10;98252.97;;;17.15;69.85
19884;BME280;10104;50.732;10.174;2023-05-20T09:42:41;98252.50;;;17.00;71.51
19884;BME280;10104;50.732;10.174;2023-05-20T09:45:06;98250.59;;;17.25;70.19
19884;BME280;10104;50.732;10.174;2023-05-20T09:47:29;98249.78;;;17.43;68.55
19884;BME280;10104;50.732;10.174;2023-05-20T09:49:52;98246.75;;;17.39;68.32
19884;BME280;10104;50.732;10.174;2023-05-20T09:52:14;98241.16;;;17.41;68.40
19884;BME280;10104;50.732;10.174;2023-05-20T09:54:36;98242.44;;;17.38;68.05
19884;BME280;10104;50.732;10.174;2023-05-20T09:56:59;98235.50;;;17.31;69.43
19884;BME280;10104;50.732;10.174;2023-05-20T09:59:21;98241.00;;;17.36;68.17
19884;BME280;10104;50.732;10.174;2023-05-20T10:01:43;98243.31;;;17.51;67.93
19884;BME280;10104;50.732;10.174;2023-05-20T10:04:07;98242.03;;;17.53;67.61
19884;BME280;10104;50.732;10.174;2023-05-20T10:12:23;98241.47;;;17.88;66.80
19884;BME280;10104;50.732;10.174;2023-05-20T10:15:06;98236.25;;;17.56;69.17
19884;BME280;10104;50.732;10.174;2023-05-20T10:20:21;98233.13;;;17.96;67.84
19884;BME280;10104;50.732;10.174;2023-05-20T10:22:56;98236.75;;;18.31;66.32
19884;BME280;10104;50.732;10.174;2023-05-20T10:25:26;98229.72;;;18.72;64.82
19884;BME280;10104;50.732;10.174;2023-05-20T10:27:47;98233.34;;;18.89;63.23
19884;BME280;10104;50.732;10.174;2023-05-20T10:30:19;98221.34;;;19.03;62.26
19884;BME280;10104;50.732;10.174;2023-05-20T10:32:48;98215.59;;;19.23;62.33
19884;BME280;10104;50.732;10.174;2023-05-20T10:35:12;98212.81;;;19.29;62.48
19884;BME280;10104;50.732;10.174;2023-05-20T10:37:41;98213.28;;;19.50;61.25
19884;BME280;10104;50.732;10.174;2023-05-20T10:40:13;98210.28;;;19.63;61.18
19884;BME280;10104;50.732;10.174;2023-05-20T10:42:35;98212.44;;;19.49;60.71
19884;BME280;10104;50.732;10.174;2023-05-20T10:44:57;98210.16;;;19.69;59.49
19884;BME280;10104;50.732;10.174;2023-05-20T10:47:18;98209.50;;;19.62;60.51
19884;BME280;10104;50.732;10.174;2023-05-20T10:49:46;98207.38;;;19.64;60.72
19884;BME280;10104;50.732;10.174;2023-05-20T10:52:08;98208.09;;;19.60;60.33
19884;BME280;10104;50.732;10.174;2023-05-20T10:54:34;98212.03;;;19.69;61.47
19884;BME280;10104;50.732;10.174;2023-05-20T10:56:56;98215.94;;;19.61;60.97
19884;BME280;10104;50.732;10.174;2023-05-20T10:59:18;98212.56;;;19.54;60.78
19884;BME280;10104;50.732;10.174;2023-05-20T11:01:41;98216.50;;;19.52;61.44
19884;BME280;10104;50.732;10.174;2023-05-20T11:04:03;98216.38;;;19.58;61.30
19884;BME280;10104;50.732;10.174;2023-05-20T11:06:27;98206.78;;;20.02;59.68
19884;BME280;10104;50.732;10.174;2023-05-20T11:08:49;98203.84;;;20.04;59.25
19884;BME280;10104;50.732;10.174;2023-05-20T11:11:13;98187.38;;;20.62;57.94
19884;BME280;10104;50.732;10.174;2023-05-20T11:13:35;98200.25;;;20.93;55.35
19884;BME280;10104;50.732;10.174;2023-05-20T11:15:57;98200.91;;;20.84;55.49
19884;BME280;10104;50.732;10.174;2023-05-20T11:18:19;98203.38;;;20.52;57.93
19884;BME280;10104;50.732;10.174;2023-05-20T11:20:41;98193.28;;;21.14;55.32
19884;BME280;10104;50.732;10.174;2023-05-20T11:23:04;98196.72;;;21.48;54.63
19884;BME280;10104;50.732;10.174;2023-05-20T11:25:26;98190.47;;;21.91;53.63
19884;BME280;10104;50.732;10.174;2023-05-20T11:27:49;98196.25;;;22.22;51.46
19884;BME280;10104;50.732;10.174;2023-05-20T11:30:12;98189.06;;;23.01;49.96
19884;BME280;10104;50.732;10.174;2023-05-20T11:32:36;98183.53;;;23.28;49.64
19884;BME280;10104;50.732;10.174;2023-05-20T11:34:58;98184.31;;;23.75;48.17
19884;BME280;10104;50.732;10.174;2023-05-20T11:37:19;98194.91;;;23.82;48.23
19884;BME280;10104;50.732;10.174;2023-05-20T11:39:42;98185.97;;;23.82;47.52
19884;BME280;10104;50.732;10.174;2023-05-20T11:42:03;98188.13;;;23.90;47.57
19884;BME280;10104;50.732;10.174;2023-05-20T11:44:26;98192.03;;;24.29;48.02
19884;BME280;10104;50.732;10.174;2023-05-20T11:46:48;98188.78;;;24.27;45.78
19884;BME280;10104;50.732;10.174;2023-05-20T11:49:09;98180.03;;;23.95;47.65
19884;BME280;10104;50.732;10.174;2023-05-20T11:51:33;98186.97;;;23.60;47.13
19884;BME280;10104;50.732;10.174;2023-05-20T11:53:59;98177.75;;;23.51;47.58
19884;BME280;10104;50.732;10.174;2023-05-20T11:56:21;98178.03;;;23.65;47.65
19884;BME280;10104;50.732;10.174;2023-05-20T11:58:43;98178.25;;;23.48;47.81
19884;BME280;10104;50.732;10.174;2023-05-20T12:01:06;98180.53;;;23.19;48.63
19884;BME280;10104;50.732;10.174;2023-05-20T12:03:42;98174.59;;;23.27;49.20
19884;BME280;10104;50.732;10.174;2023-05-20T12:06:04;98168.06;;;23.13;48.54
19884;BME280;10104;50.732;10.174;2023-05-20T12:08:25;98171.31;;;22.73;49.67
19884;BME280;10104;50.732;10.174;2023-05-20T12:10:47;98169.81;;;22.55;49.48
19884;BME280;10104;50.732;10.174;2023-05-20T12:13:08;98164.34;;;22.45;50.02
19884;BME280;10104;50.732;10.174;2023-05-20T12:15:31;98162.91;;;22.70;49.41
19884;BME280;10104;50.732;10.174;2023-05-20T12:17:53;98155.56;;;22.65;50.11
19884;BME280;10104;50.732;10.174;2023-05-20T12:20:15;98164.19;;;22.30;50.71
19884;BME280;10104;50.732;10.174;2023-05-20T12:22:37;98163.53;;;22.45;50.59
19884;BME280;10104;50.732;10.174;2023-05-20T12:24:58;98159.25;;;22.54;50.03
19884;BME280;10104;50.732;10.174;2023-05-20T12:27:20;98154.41;;;22.56;50.16
19884;BME280;10104;50.732;10.174;2023-05-20T12:29:41;98149.88;;;22.30;49.76
19884;BME280;10104;50.732;10.174;2023-05-20T12:32:03;98146.03;;;22.21;50.72
19884;BME280;10104;50.732;10.174;2023-05-20T12:34:25;98142.13;;;22.06;51.67